createdAt,value
2023-02-11T00:00:13.303Z,5.60
2023-02-11T00:05:15.613Z,5.63
2023-02-11T00:10:23.352Z,5.66
2023-02-11T00:15:29.636Z,5.67
2023-02-11T00:20:31.275Z,5.66
2023-02-11T00:25:40.004Z,5.65
2023-02-11T00:30:41.906Z,5.64
2023-02-11T00:35:48.316Z,5.64
2023-02-11T00:40:51.431Z,5.66
2023-02-11T00:45:56.127Z,5.70
2023-02-11T00:50:59.850Z,5.72
2023-02-11T00:56:06.641Z,5.75
2023-02-11T01:01:08.494Z,5.80
2023-02-11T01:06:10.904Z,5.85
2023-02-11T01:11:18.865Z,5.89
2023-02-11T01:16:23.650Z,5.93
2023-02-11T01:21:28.313Z,5.92
2023-02-11T01:26:34.789Z,5.93
2023-02-11T01:31:41.411Z,5.93
2023-02-11T01:36:47.672Z,5.93
2023-02-11T01:41:52.545Z,5.90
2023-02-11T01:46:56.757Z,5.91
2023-02-11T01:52:09.430Z,5.91
2023-02-11T01:57:22.149Z,5.92
2023-02-11T02:02:29.805Z,5.96
2023-02-11T02:07:43.999Z,6.05
2023-02-11T02:12:50.385Z,6.07
2023-02-11T02:18:03.017Z,6.10
2023-02-11T02:23:10.000Z,6.14
2023-02-11T02:28:20.198Z,6.17
2023-02-11T02:33:28.057Z,6.19
2023-02-11T02:38:40.509Z,6.20
2023-02-11T02:43:50.666Z,6.22
2023-02-11T02:49:00.690Z,6.23
2023-02-11T02:54:40.853Z,6.29
2023-02-11T02:59:54.191Z,6.30
2023-02-11T03:05:02.097Z,6.31
2023-02-11T03:10:09.119Z,6.33
2023-02-11T03:15:16.072Z,6.35
2023-02-11T03:20:20.283Z,6.35
2023-02-11T03:25:28.799Z,6.35
2023-02-11T03:30:34.888Z,6.34
2023-02-11T03:35:46.134Z,6.31
2023-02-11T03:40:50.639Z,6.22
2023-02-11T03:45:57.478Z,6.12
2023-02-11T03:51:04.737Z,6.03
2023-02-11T03:56:09.481Z,5.96
2023-02-11T04:01:14.970Z,5.92
2023-02-11T04:06:19.137Z,5.91
2023-02-11T04:11:23.376Z,5.90
2023-02-11T04:16:31.087Z,5.91
2023-02-11T04:21:35.055Z,5.92
2023-02-11T04:26:41.407Z,5.92
2023-02-11T04:31:45.501Z,5.92
2023-02-11T04:36:48.265Z,5.91
2023-02-11T04:41:51.050Z,5.91
2023-02-11T04:46:59.391Z,5.90
2023-02-11T04:52:06.191Z,5.89
2023-02-11T04:57:08.001Z,5.89
2023-02-11T05:02:11.973Z,5.90
2023-02-11T05:07:14.337Z,5.91
2023-02-11T05:12:16.094Z,5.93
2023-02-11T05:17:22.171Z,5.93
2023-02-11T05:22:28.746Z,5.96
2023-02-11T05:27:33.428Z,6.01
2023-02-11T05:32:42.476Z,6.08
2023-02-11T05:37:44.646Z,6.15
2023-02-11T05:42:48.624Z,6.26
2023-02-11T05:47:55.104Z,6.36
2023-02-11T05:52:59.103Z,6.42
2023-02-11T05:58:03.343Z,6.44
2023-02-11T06:03:05.323Z,6.51
2023-02-11T06:08:09.266Z,6.55
2023-02-11T06:13:13.600Z,6.58
2023-02-11T06:18:15.429Z,6.61
2023-02-11T06:23:19.452Z,6.63
2023-02-11T06:28:21.183Z,6.67
2023-02-11T06:33:27.642Z,6.67
2023-02-11T06:38:34.221Z,6.71
2023-02-11T06:43:38.312Z,6.71
2023-02-11T06:48:40.067Z,6.76
2023-02-11T06:53:44.445Z,6.79
2023-02-11T06:58:48.528Z,6.81
2023-02-11T07:03:51.449Z,6.82
2023-02-11T07:08:55.762Z,6.84
2023-02-11T07:14:10.141Z,6.87
2023-02-11T07:19:14.136Z,6.86
2023-02-11T07:24:16.190Z,6.88
2023-02-11T07:29:17.909Z,6.90
2023-02-11T07:34:22.815Z,7.14
2023-02-11T07:39:29.518Z,7.14
2023-02-11T07:44:33.262Z,7.13
2023-02-11T07:49:34.963Z,7.12
2023-02-11T07:54:36.924Z,7.14
2023-02-11T07:59:43.615Z,7.14
2023-02-11T08:04:47.127Z,7.19
2023-02-11T08:09:56.720Z,7.21
2023-02-11T08:14:59.623Z,7.25
2023-02-11T08:20:04.796Z,7.30
2023-02-11T08:25:09.548Z,7.35
2023-02-11T08:30:12.032Z,7.40
2023-02-11T08:35:15.901Z,7.45
2023-02-11T08:40:17.874Z,7.56
2023-02-11T08:45:22.178Z,7.75
2023-02-11T08:50:27.927Z,7.73
2023-02-11T08:55:29.727Z,7.73
2023-02-11T09:00:33.819Z,7.76
2023-02-11T09:05:53.642Z,7.79
2023-02-11T09:10:59.466Z,7.80
2023-02-11T09:16:07.973Z,7.84
2023-02-11T09:21:13.005Z,7.88
2023-02-11T09:26:17.946Z,7.89
2023-02-11T09:31:21.816Z,7.92
2023-02-11T09:36:30.992Z,7.95
2023-02-11T09:41:47.661Z,7.98
2023-02-11T09:46:59.707Z,8.01
2023-02-11T09:52:30.170Z,8.01
2023-02-11T09:57:36.559Z,8.01
2023-02-11T10:02:58.630Z,8.07
2023-02-11T10:08:15.852Z,8.16
2023-02-11T10:13:31.974Z,8.26
2023-02-11T10:18:42.662Z,8.32
2023-02-11T10:23:49.117Z,8.37
2023-02-11T10:28:54.559Z,8.48
2023-02-11T10:34:03.236Z,8.53
2023-02-11T10:39:18.694Z,8.54
2023-02-11T10:44:41.326Z,8.55
2023-02-11T10:49:45.502Z,8.66
2023-02-11T10:55:03.232Z,8.83
2023-02-11T11:00:36.130Z,8.98
2023-02-11T11:05:50.232Z,8.97
2023-02-11T11:11:05.318Z,8.89
2023-02-11T11:16:12.204Z,8.95
2023-02-11T11:21:29.042Z,9.05
2023-02-11T11:26:46.623Z,9.06
2023-02-11T11:32:01.314Z,8.97
2023-02-11T11:37:29.356Z,8.90
2023-02-11T11:42:36.033Z,8.91
2023-02-11T11:47:43.534Z,8.96
2023-02-11T11:53:01.494Z,8.93
2023-02-11T11:58:06.940Z,8.92
2023-02-11T12:03:27.570Z,8.87
2023-02-11T12:09:12.712Z,8.91
2023-02-11T12:14:35.636Z,8.73
2023-02-11T12:20:14.406Z,8.71
2023-02-11T12:25:30.884Z,8.73
2023-02-11T12:30:45.103Z,8.76
2023-02-11T12:35:58.941Z,8.70
2023-02-11T12:41:39.754Z,8.60
2023-02-11T12:46:51.297Z,8.54
2023-02-11T12:52:08.973Z,8.59
2023-02-11T12:57:19.605Z,8.52
2023-02-11T13:02:31.966Z,8.46
2023-02-11T13:07:39.636Z,8.38
2023-02-11T13:13:09.073Z,8.34
2023-02-11T13:18:32.686Z,8.39
2023-02-11T13:23:39.920Z,8.34
2023-02-11T13:29:07.809Z,8.23
2023-02-11T13:34:46.625Z,8.21
2023-02-11T13:39:57.027Z,8.17
2023-02-11T13:44:58.980Z,8.15
2023-02-11T13:50:06.420Z,8.15
2023-02-11T13:55:20.528Z,8.21
2023-02-11T14:00:37.276Z,8.15
2023-02-11T14:06:26.729Z,8.15
2023-02-11T14:11:40.914Z,8.16
2023-02-11T14:17:17.042Z,8.08
2023-02-11T14:22:31.753Z,8.03
2023-02-11T14:27:37.501Z,7.98
2023-02-11T14:32:55.437Z,7.94
2023-02-11T14:38:05.212Z,7.90
2023-02-11T14:43:16.268Z,7.86
2023-02-11T14:48:20.114Z,7.89
2023-02-11T14:53:26.338Z,7.86
2023-02-11T14:58:30.153Z,7.84
2023-02-11T15:03:43.073Z,7.80
2023-02-11T15:09:05.059Z,7.76
2023-02-11T15:14:12.025Z,7.72
2023-02-11T15:19:37.028Z,7.67
2023-02-11T15:24:40.247Z,7.66
2023-02-11T15:29:50.647Z,7.65
2023-02-11T15:34:56.773Z,7.62
2023-02-11T15:40:14.861Z,7.60
2023-02-11T15:45:17.570Z,7.61
2023-02-11T15:50:27.532Z,7.62
2023-02-11T15:55:29.915Z,7.56
2023-02-11T16:00:40.024Z,7.51
2023-02-11T16:05:42.775Z,7.48
2023-02-11T16:10:58.716Z,7.42
2023-02-11T16:16:07.431Z,7.38
2023-02-11T16:21:18.934Z,7.36
2023-02-11T16:26:29.354Z,7.30
2023-02-11T16:31:37.205Z,7.25
2023-02-11T16:36:41.490Z,7.21
2023-02-11T16:41:43.550Z,7.16
2023-02-11T16:46:50.836Z,7.11
2023-02-11T16:51:56.609Z,7.09
2023-02-11T16:57:00.745Z,7.06
2023-02-11T17:02:03.925Z,7.05
2023-02-11T17:07:07.869Z,7.00
2023-02-11T17:12:12.869Z,6.98
2023-02-11T17:17:17.502Z,6.97
2023-02-11T17:22:23.413Z,6.97
2023-02-11T17:27:25.138Z,6.96
2023-02-11T17:32:29.660Z,6.97
2023-02-11T17:37:34.774Z,6.96
2023-02-11T17:42:40.883Z,6.97
2023-02-11T17:47:52.265Z,6.97
2023-02-11T17:52:54.112Z,6.98
2023-02-11T17:57:58.232Z,6.96
2023-02-11T18:03:03.823Z,6.95
2023-02-11T18:08:07.308Z,6.95
2023-02-11T18:13:08.995Z,6.96
2023-02-11T18:18:11.235Z,6.96
2023-02-11T18:23:15.435Z,6.96
2023-02-11T18:28:17.173Z,6.96
2023-02-11T18:33:22.868Z,6.93
2023-02-11T18:38:27.390Z,6.92
2023-02-11T18:43:33.708Z,6.93
2023-02-11T18:48:37.873Z,6.90
2023-02-11T18:53:43.104Z,6.90
2023-02-11T18:58:51.380Z,6.89
2023-02-11T19:03:54.328Z,6.89
2023-02-11T19:08:59.968Z,6.88
2023-02-11T19:14:10.081Z,6.89
2023-02-11T19:19:15.374Z,6.88
2023-02-11T19:24:19.986Z,6.88
2023-02-11T19:29:22.033Z,6.88
2023-02-11T19:34:27.805Z,6.85
2023-02-11T19:39:32.931Z,6.87
2023-02-11T19:44:34.791Z,6.86
2023-02-11T19:49:41.236Z,6.85
2023-02-11T19:54:46.293Z,6.84
2023-02-11T19:59:50.927Z,6.80
2023-02-11T20:04:52.653Z,6.79
2023-02-11T20:09:57.533Z,6.75
2023-02-11T20:15:02.426Z,6.75
2023-02-11T20:20:05.468Z,6.74
2023-02-11T20:25:12.429Z,6.73
2023-02-11T20:30:14.842Z,6.72
2023-02-11T20:35:18.830Z,6.73
2023-02-11T20:40:20.666Z,6.72
2023-02-11T20:45:24.441Z,6.70
2023-02-11T20:50:28.516Z,6.71
2023-02-11T20:55:33.712Z,6.71
2023-02-11T21:00:38.726Z,6.72
2023-02-11T21:05:43.378Z,6.73
2023-02-11T21:10:50.658Z,6.72
2023-02-11T21:15:55.946Z,6.72
2023-02-11T21:20:57.990Z,6.73
2023-02-11T21:25:59.724Z,6.70
2023-02-11T21:31:04.252Z,6.72
2023-02-11T21:36:10.612Z,6.72
2023-02-11T21:41:15.685Z,6.71
2023-02-11T21:46:19.046Z,6.70
2023-02-11T21:51:28.770Z,6.65
2023-02-11T21:56:33.307Z,6.65
2023-02-11T22:01:35.860Z,6.62
2023-02-11T22:06:41.230Z,6.62
2023-02-11T22:11:49.245Z,6.63
2023-02-11T22:16:55.304Z,6.60
2023-02-11T22:21:57.110Z,6.64
2023-02-11T22:26:58.787Z,6.65
2023-02-11T22:32:02.849Z,6.65
2023-02-11T22:37:07.607Z,6.68
2023-02-11T22:42:09.514Z,6.68
2023-02-11T22:47:13.667Z,6.69
2023-02-11T22:52:16.794Z,6.70
2023-02-11T22:57:21.004Z,6.71
2023-02-11T23:02:28.587Z,6.69
2023-02-11T23:07:38.353Z,6.71
2023-02-11T23:12:44.524Z,6.72
2023-02-11T23:17:46.185Z,6.73
2023-02-11T23:22:50.134Z,6.73
2023-02-11T23:27:56.532Z,6.73
2023-02-11T23:33:00.549Z,6.74
2023-02-11T23:38:05.010Z,6.73
2023-02-11T23:43:09.204Z,6.69
2023-02-11T23:48:14.205Z,6.66
2023-02-11T23:53:18.537Z,6.65
2023-02-11T23:58:26.333Z,6.63
